Time;durP1;ratioP1;P1;durP2;ratioP2;P2;SDS_P1;SDS_P2;PMS_P1;PMS_P2;Temp;Humidity;BMP_temperature;BMP_pressure;BME280_temperature;BME280_humidity;BME280_pressure;Samples;Min_cycle;Max_cycle;Signal;HPM_P1;HPM_P2
2024/01/03 00:00:27;;;;;;;21.13;3.83;;;;;;;-145.18;100.00;46793.22;5082137;28;20024;-71
2024/01/03 00:02:52;;;;;;;21.97;3.90;;;;;;;-145.18;100.00;46797.13;5094604;28;20028;-71
2024/01/03 00:05:37;;;;;;;22.00;3.03;;;;;;;-145.18;100.00;46804.94;5066631;28;20560;-71
2024/01/03 00:08:04;;;;;;;22.30;2.80;;;;;;;-145.18;100.00;46795.19;5084326;28;20035;-70
2024/01/03 00:10:49;;;;;;;19.33;3.63;;;;;;;-145.18;100.00;46797.13;5092882;28;20074;-71
2024/01/03 00:13:29;;;;;;;20.67;2.80;;;;;;;-145.18;100.00;46793.22;5076977;28;20492;-70
2024/01/03 00:16:01;;;;;;;19.40;3.20;;;;;;;-145.18;100.00;46793.22;5073570;28;20532;-70
2024/01/03 00:18:58;;;;;;;15.80;2.60;;;;;;;-145.18;100.00;46789.31;5087788;28;20016;-70
2024/01/03 00:21:25;;;;;;;18.27;3.00;;;;;;;-145.18;100.00;46787.38;5076835;28;20086;-71
2024/01/03 00:23:58;;;;;;;23.77;3.30;;;;;;;-145.18;100.00;46791.28;5079142;28;20028;-71
2024/01/03 00:26:25;;;;;;;17.57;3.50;;;;;;;-145.18;100.00;46787.38;5087696;28;20054;-70
2024/01/03 00:28:52;;;;;;;25.13;3.07;;;;;;;-145.18;100.00;46789.31;5088062;28;20035;-70
2024/01/03 00:31:40;;;;;;;21.83;4.03;;;;;;;-145.18;100.00;46791.28;5080103;28;20032;-70
2024/01/03 00:34:09;;;;;;;21.07;3.10;;;;;;;-145.18;100.00;46791.28;5072904;28;20504;-70
2024/01/03 00:36:35;;;;;;;20.53;4.27;;;;;;;-145.18;100.00;46793.22;5075676;28;20400;-70
2024/01/03 00:39:00;;;;;;;24.53;3.93;;;;;;;-145.18;100.00;46793.22;5075266;28;20115;-71
2024/01/03 00:41:26;;;;;;;23.73;4.43;;;;;;;-145.18;100.00;46795.19;5076225;28;20151;-70
2024/01/03 00:43:51;;;;;;;21.07;2.93;;;;;;;-145.18;100.00;46787.38;5062672;28;20047;-71
2024/01/03 00:46:16;;;;;;;19.93;3.00;;;;;;;-145.18;100.00;46799.09;5093353;28;20480;-71
2024/01/03 00:48:42;;;;;;;24.43;3.07;;;;;;;-145.18;100.00;46799.09;5079206;28;20032;-71
2024/01/03 00:51:08;;;;;;;25.80;2.97;;;;;;;-145.18;100.00;46808.84;5076291;28;20028;-71
2024/01/03 00:53:34;;;;;;;32.53;5.67;;;;;;;-145.18;100.00;46808.84;5081250;28;20024;-71
2024/01/03 00:56:00;;;;;;;24.77;4.17;;;;;;;-145.18;100.00;46806.91;5108698;28;20115;-71
2024/01/03 00:58:25;;;;;;;24.90;3.43;;;;;;;-145.18;100.00;46810.81;5082521;28;20102;-70
2024/01/03 01:00:51;;;;;;;32.13;3.67;;;;;;;-145.18;100.00;46816.66;5092415;28;20135;-71
2024/01/03 01:03:17;;;;;;;26.17;3.40;;;;;;;-145.18;100.00;46816.66;5072033;28;20028;-71
2024/01/03 01:05:43;;;;;;;26.93;4.03;;;;;;;-145.18;100.00;46816.66;5065645;28;20032;-71
2024/01/03 01:08:08;;;;;;;21.37;3.90;;;;;;;-145.18;100.00;46818.63;5082724;28;20537;-71
2024/01/03 01:10:33;;;;;;;20.30;3.00;;;;;;;-145.18;100.00;46822.53;5087851;28;20050;-71
2024/01/03 01:12:59;;;;;;;37.33;5.17;;;;;;;-145.18;100.00;46824.47;5085916;28;20039;-70
2024/01/03 01:15:24;;;;;;;28.43;4.03;;;;;;;-145.18;100.00;46828.38;5085177;28;20464;-71
2024/01/03 01:17:50;;;;;;;38.93;5.63;;;;;;;-145.18;100.00;46826.44;5089906;28;20032;-71
2024/01/03 01:20:15;;;;;;;33.20;4.23;;;;;;;-145.18;100.00;46832.28;5085471;28;20035;-71
2024/01/03 01:22:40;;;;;;;22.87;3.10;;;;;;;-145.18;100.00;46826.44;5082624;28;20032;-71
2024/01/03 01:25:06;;;;;;;25.10;3.37;;;;;;;-145.18;100.00;46828.38;5085733;28;20110;-71
2024/01/03 01:27:32;;;;;;;31.63;4.93;;;;;;;-145.18;100.00;46830.34;5086585;28;20052;-71
2024/01/03 01:29:57;;;;;;;32.60;4.97;;;;;;;-145.18;100.00;46824.47;5086581;28;20476;-71
2024/01/03 01:32:22;;;;;;;33.73;4.23;;;;;;;-145.18;100.00;46836.19;5088573;28;20023;-71
2024/01/03 01:34:48;;;;;;;31.83;4.70;;;;;;;-145.18;100.00;46830.34;5084789;28;20740;-70
2024/01/03 01:37:13;;;;;;;32.67;4.63;;;;;;;-145.18;100.00;46830.34;5086720;28;20106;-70
2024/01/03 01:39:40;;;;;;;28.13;5.03;;;;;;;-145.18;100.00;46832.28;5057685;28;20032;-71
2024/01/03 01:42:05;;;;;;;36.10;5.13;;;;;;;-145.18;100.00;46830.34;5080139;28;20111;-71
2024/01/03 01:44:31;;;;;;;26.30;4.17;;;;;;;-145.18;100.00;46840.09;5091731;28;20110;-71
2024/01/03 01:46:57;;;;;;;31.83;4.60;;;;;;;-145.18;100.00;46838.16;5079922;28;20060;-70
2024/01/03 01:49:26;;;;;;;28.07;4.27;;;;;;;-145.18;100.00;46842.06;5091953;28;20105;-71
2024/01/03 01:51:52;;;;;;;38.00;4.93;;;;;;;-145.18;100.00;46840.09;5079030;28;20516;-70
2024/01/03 01:54:18;;;;;;;31.43;5.10;;;;;;;-145.18;100.00;46842.06;5083816;28;20027;-71
2024/01/03 01:56:44;;;;;;;30.73;5.27;;;;;;;-145.18;100.00;46844.00;5077053;28;20048;-70
2024/01/03 01:59:11;;;;;;;26.13;4.10;;;;;;;-145.18;100.00;46851.81;5083229;28;20028;-70
2024/01/03 02:01:37;;;;;;;34.87;5.33;;;;;;;-145.18;100.00;46857.69;5085898;28;20016;-71
2024/01/03 02:04:07;;;;;;;32.80;4.40;;;;;;;-145.18;100.00;46859.63;5080884;28;20019;-71
2024/01/03 02:06:34;;;;;;;33.53;4.37;;;;;;;-145.18;100.00;46865.50;5086650;28;20622;-70
2024/01/03 02:08:59;;;;;;;35.43;4.30;;;;;;;-145.18;100.00;46869.41;5083650;28;20480;-70
2024/01/03 02:11:25;;;;;;;36.57;5.70;;;;;;;-145.18;100.00;46869.41;5086707;28;20044;-70
2024/01/03 02:13:50;;;;;;;33.27;4.87;;;;;;;-145.18;100.00;46871.38;5076194;28;20051;-70
2024/01/03 02:16:15;;;;;;;35.53;4.23;;;;;;;-145.18;100.00;46873.31;5088819;28;20033;-70
2024/01/03 02:18:41;;;;;;;25.33;4.03;;;;;;;-145.18;100.00;46871.38;5085640;28;20456;-70
2024/01/03 02:21:24;;;;;;;31.77;5.13;;;;;;;-145.18;100.00;46869.41;5085315;28;20027;-71
2024/01/03 02:23:50;;;;;;;24.23;3.10;;;;;;;-145.18;100.00;46863.53;5081433;28;20032;-71
2024/01/03 02:26:15;;;;;;;30.37;4.23;;;;;;;-145.18;100.00;46861.59;5081179;28;21378;-70
2024/01/03 02:28:41;;;;;;;24.40;4.30;;;;;;;-145.18;100.00;46863.53;5091238;28;20055;-70
2024/01/03 02:31:06;;;;;;;28.53;5.53;;;;;;;-145.18;100.00;46861.59;5083878;28;20043;-70
2024/01/03 02:33:31;;;;;;;32.63;4.30;;;;;;;-145.18;100.00;46865.50;5088306;28;20020;-70
2024/01/03 02:35:57;;;;;;;30.27;5.07;;;;;;;-145.18;100.00;46873.31;5089115;28;20458;-70
2024/01/03 02:38:22;;;;;;;23.30;3.93;;;;;;;-145.18;100.00;46871.38;5081389;28;20032;-71
2024/01/03 02:40:50;;;;;;;29.50;4.33;;;;;;;-145.18;100.00;46871.38;5090686;28;20035;-71
2024/01/03 02:43:15;;;;;;;36.63;4.87;;;;;;;-145.18;100.00;46871.38;5087797;28;20036;-70
2024/01/03 02:45:40;;;;;;;27.43;4.37;;;;;;;-145.18;100.00;46873.31;5088607;28;20399;-70
2024/01/03 02:48:06;;;;;;;30.47;4.87;;;;;;;-145.18;100.00;46871.38;5070593;28;20024;-70
2024/01/03 02:50:32;;;;;;;28.60;3.80;;;;;;;-145.18;100.00;46871.38;5081143;28;20047;-70
2024/01/03 02:52:57;;;;;;;27.67;4.53;;;;;;;-145.18;100.00;46869.41;5087322;28;20057;-70
2024/01/03 02:55:22;;;;;;;29.57;4.50;;;;;;;-145.18;100.00;46869.41;5088039;28;20123;-70
2024/01/03 02:57:48;;;;;;;27.43;4.53;;;;;;;-145.18;100.00;46867.44;5072936;28;20036;-70
2024/01/03 03:00:13;;;;;;;25.47;4.03;;;;;;;-145.18;100.00;46871.38;5088567;28;20040;-70
2024/01/03 03:02:39;;;;;;;30.20;4.70;;;;;;;-145.18;100.00;46871.38;5072122;28;20054;-70
2024/01/03 03:05:05;;;;;;;32.67;5.33;;;;;;;-145.18;100.00;46869.41;5089792;28;20036;-70
2024/01/03 03:07:30;;;;;;;20.30;3.60;;;;;;;-145.18;100.00;46875.28;5083092;28;20044;-70
2024/01/03 03:09:55;;;;;;;42.43;5.10;;;;;;;-145.18;100.00;46875.28;5085560;28;20024;-70
2024/01/03 03:12:21;;;;;;;35.40;4.97;;;;;;;-145.18;100.00;46877.22;5074310;28;20036;-70
2024/01/03 03:14:47;;;;;;;25.50;4.00;;;;;;;-145.18;100.00;46879.19;5088560;28;20032;-70
2024/01/03 03:17:12;;;;;;;31.13;4.43;;;;;;;-145.18;100.00;46885.03;5089835;28;20036;-71
2024/01/03 03:19:38;;;;;;;33.37;5.17;;;;;;;-145.18;100.00;46887.00;5076521;28;20031;-70
2024/01/03 03:22:03;;;;;;;35.90;6.07;;;;;;;-145.18;100.00;46888.94;5091986;28;20060;-70
2024/01/03 03:24:28;;;;;;;32.23;5.27;;;;;;;-145.18;100.00;46888.94;5092952;28;20031;-70
2024/01/03 03:26:55;;;;;;;33.93;4.93;;;;;;;-145.18;100.00;46887.00;5076126;28;20403;-70
2024/01/03 03:29:20;;;;;;;49.10;6.63;;;;;;;-145.18;100.00;46890.91;5091812;28;20062;-70
2024/01/03 03:31:45;;;;;;;36.77;4.33;;;;;;;-145.18;100.00;46887.00;5094441;28;20392;-70
2024/01/03 03:34:11;;;;;;;30.80;5.53;;;;;;;-145.18;100.00;46892.84;5084730;28;20119;-70
2024/01/03 03:36:36;;;;;;;27.37;4.10;;;;;;;-145.18;100.00;46888.94;5081730;28;20028;-70
2024/01/03 03:39:02;;;;;;;28.13;3.77;;;;;;;-145.18;100.00;46892.84;5080902;28;20033;-70
2024/01/03 03:41:27;;;;;;;39.93;4.23;;;;;;;-145.18;100.00;46890.91;5072233;28;20025;-70
2024/01/03 03:43:52;;;;;;;31.23;5.90;;;;;;;-145.18;100.00;46890.91;5080481;28;20124;-70
2024/01/03 03:46:18;;;;;;;23.93;3.90;;;;;;;-145.18;100.00;46888.94;5077761;28;20024;-70
2024/01/03 03:48:44;;;;;;;39.17;4.97;;;;;;;-145.18;100.00;46887.00;5086867;28;20040;-70
2024/01/03 03:51:09;;;;;;;31.07;4.30;;;;;;;-145.18;100.00;46887.00;5077048;28;20119;-70
2024/01/03 03:53:35;;;;;;;30.47;4.40;;;;;;;-145.18;100.00;46887.00;5085584;28;20231;-70
2024/01/03 03:56:00;;;;;;;22.53;3.87;;;;;;;-145.18;100.00;46887.00;5090629;28;20540;-70
2024/01/03 03:58:25;;;;;;;28.33;5.03;;;;;;;-145.18;100.00;46883.09;5061601;28;20084;-71
2024/01/03 04:00:51;;;;;;;28.77;4.23;;;;;;;-145.18;100.00;46885.03;5090356;28;20412;-70
2024/01/03 04:03:17;;;;;;;35.90;4.50;;;;;;;-145.18;100.00;46887.00;5092565;28;20036;-70
2024/01/03 04:05:42;;;;;;;28.83;4.53;;;;;;;-145.18;100.00;46883.09;5087016;28;20029;-70
2024/01/03 04:08:07;;;;;;;46.30;6.43;;;;;;;-145.18;100.00;46885.03;5073871;28;20126;-70
2024/01/03 04:10:33;;;;;;;34.73;7.07;;;;;;;-145.18;100.00;46885.03;5091844;28;20415;-70
2024/01/03 04:12:59;;;;;;;27.83;3.73;;;;;;;-145.18;100.00;46883.09;5075929;28;20113;-70
2024/01/03 04:15:24;;;;;;;29.10;3.97;;;;;;;-145.18;100.00;46879.19;5089576;28;20032;-70
2024/01/03 04:17:52;;;;;;;26.03;4.47;;;;;;;-145.18;100.00;46881.13;5082498;28;20140;-70
2024/01/03 04:20:18;;;;;;;30.27;3.43;;;;;;;-145.18;100.00;46881.13;5090937;28;20024;-70
2024/01/03 04:22:45;;;;;;;31.57;5.40;;;;;;;-145.18;100.00;46883.09;5074685;28;20039;-70
2024/01/03 04:25:11;;;;;;;25.73;3.80;;;;;;;-145.18;100.00;46888.94;5091453;28;20124;-70
2024/01/03 04:27:36;;;;;;;34.77;4.27;;;;;;;-145.18;100.00;46888.94;5093035;28;20028;-70
2024/01/03 04:30:03;;;;;;;35.03;4.40;;;;;;;-145.18;100.00;46896.75;5073311;28;20161;-70
2024/01/03 04:32:29;;;;;;;28.23;4.20;;;;;;;-145.18;100.00;46898.72;5091517;28;20122;-70
2024/01/03 04:34:55;;;;;;;30.17;4.43;;;;;;;-145.18;100.00;46902.63;5092644;28;20471;-70
2024/01/03 04:37:20;;;;;;;30.20;4.03;;;;;;;-145.18;100.00;46906.53;5085457;28;20031;-71
2024/01/03 04:39:45;;;;;;;26.90;3.90;;;;;;;-145.18;100.00;46912.38;5093539;28;20060;-71
2024/01/03 04:42:11;;;;;;;33.67;3.90;;;;;;;-145.18;100.00;46922.16;5074927;28;20047;-71
2024/01/03 04:44:36;;;;;;;28.10;3.60;;;;;;;-145.18;100.00;46929.97;5100859;28;20037;-70
2024/01/03 04:47:02;;;;;;;30.80;3.30;;;;;;;-145.18;100.00;46939.72;5049995;28;20031;-73
2024/01/03 04:49:30;;;;;;;28.30;3.53;;;;;;;-145.18;100.00;46945.59;5085444;28;20111;-74
2024/01/03 04:51:55;;;;;;;29.40;3.63;;;;;;;-145.18;100.00;46953.41;5067290;28;20043;-73
2024/01/03 04:54:21;;;;;;;20.17;2.80;;;;;;;-145.18;100.00;46951.44;5085868;28;20028;-74
2024/01/03 04:56:47;;;;;;;20.27;3.87;;;;;;;-145.18;100.00;46953.41;5068329;28;20070;-74
2024/01/03 04:59:12;;;;;;;17.50;2.53;;;;;;;-145.18;100.00;46951.44;5085432;28;20499;-73
2024/01/03 05:01:39;;;;;;;23.00;3.10;;;;;;;-145.18;100.00;46953.41;5091778;28;20028;-73
2024/01/03 05:04:05;;;;;;;22.70;2.53;;;;;;;-145.18;100.00;46943.63;5083793;28;20035;-73
2024/01/03 05:06:30;;;;;;;15.23;2.37;;;;;;;-145.18;100.00;46943.63;5090890;28;20682;-73
2024/01/03 05:08:55;;;;;;;14.87;2.40;;;;;;;-145.18;100.00;46943.63;5076502;28;20507;-74
2024/01/03 05:11:21;;;;;;;17.73;2.63;;;;;;;-145.18;100.00;46943.63;5067828;28;20512;-74
2024/01/03 05:13:46;;;;;;;20.97;2.63;;;;;;;-145.18;100.00;46937.78;5085880;28;20033;-73
2024/01/03 05:16:12;;;;;;;19.77;2.53;;;;;;;-145.18;100.00;46933.88;5083861;28;20040;-73
2024/01/03 05:18:38;;;;;;;16.57;2.57;;;;;;;-145.18;100.00;46931.91;5064883;28;20487;-73
2024/01/03 05:21:05;;;;;;;15.80;2.23;;;;;;;-145.18;100.00;46931.91;5086445;28;20040;-73
2024/01/03 05:23:31;;;;;;;21.33;2.97;;;;;;;-145.18;100.00;46929.97;5077347;28;20036;-73
2024/01/03 05:25:56;;;;;;;17.73;2.33;;;;;;;-145.18;100.00;46929.97;5074624;28;20516;-73
2024/01/03 05:28:21;;;;;;;11.53;2.03;;;;;;;-145.18;100.00;46929.97;5092299;28;20070;-73
2024/01/03 05:30:47;;;;;;;10.47;2.00;;;;;;;-145.18;100.00;46928.00;5074035;28;20032;-73
2024/01/03 05:33:12;;;;;;;14.80;1.37;;;;;;;-145.18;100.00;46928.00;5091632;28;20395;-73
2024/01/03 05:35:38;;;;;;;12.97;1.57;;;;;;;-145.18;100.00;46926.06;5092229;28;20511;-73
2024/01/03 05:38:03;;;;;;;10.83;1.57;;;;;;;-145.18;100.00;46924.09;5071311;28;20074;-73
2024/01/03 05:40:29;;;;;;;12.83;1.63;;;;;;;-145.18;100.00;46926.06;5092414;28;20090;-73
2024/01/03 05:42:54;;;;;;;18.80;3.77;;;;;;;-145.18;100.00;46926.06;5069893;28;20048;-74
2024/01/03 05:45:20;;;;;;;15.70;2.03;;;;;;;-145.18;100.00;46926.06;5089489;28;20036;-74
2024/01/03 05:47:45;;;;;;;13.30;2.37;;;;;;;-145.18;100.00;46920.19;5073153;28;20032;-73
2024/01/03 05:50:11;;;;;;;16.23;2.10;;;;;;;-145.18;100.00;46926.06;5069786;28;20028;-73
2024/01/03 05:52:36;;;;;;;14.73;3.53;;;;;;;-145.18;100.00;46918.25;5087805;28;21545;-74
2024/01/03 05:55:06;;;;;;;8.83;1.90;;;;;;;-145.18;100.00;46922.16;5057738;28;20051;-73
2024/01/03 05:57:32;;;;;;;5.40;0.90;;;;;;;-145.18;100.00;46926.06;5087362;28;20120;-70
2024/01/03 05:59:58;;;;;;;9.57;1.30;;;;;;;-145.18;100.00;46924.09;5077356;28;20111;-70
2024/01/03 06:02:23;;;;;;;13.43;1.73;;;;;;;-145.18;100.00;46922.16;5078423;28;20032;-70
2024/01/03 06:04:49;;;;;;;14.30;2.53;;;;;;;-145.18;100.00;46924.09;5074970;28;20492;-70
2024/01/03 06:07:14;;;;;;;7.50;1.27;;;;;;;-145.18;100.00;46918.25;5087465;28;20112;-70
2024/01/03 06:09:40;;;;;;;6.93;1.23;;;;;;;-145.18;100.00;46922.16;5084580;28;20059;-71
2024/01/03 06:12:05;;;;;;;9.87;1.37;;;;;;;-145.18;100.00;46926.06;5088510;28;20070;-70
2024/01/03 06:14:31;;;;;;;11.07;1.37;;;;;;;-145.18;100.00;46916.28;5086894;28;20127;-70
2024/01/03 06:16:56;;;;;;;6.67;0.70;;;;;;;-145.18;100.00;46920.19;5069625;28;20039;-70
2024/01/03 06:19:21;;;;;;;8.80;1.47;;;;;;;-145.18;100.00;46918.25;5091392;28;20027;-70
2024/01/03 06:21:47;;;;;;;18.53;2.20;;;;;;;-145.18;100.00;46922.16;5087494;28;20459;-70
2024/01/03 06:24:12;;;;;;;9.97;1.23;;;;;;;-145.18;100.00;46924.09;5091375;28;20028;-70
2024/01/03 06:26:38;;;;;;;10.63;2.27;;;;;;;-145.18;100.00;46918.25;5091269;28;20101;-70
2024/01/03 06:29:04;;;;;;;5.10;1.70;;;;;;;-145.18;100.00;46918.25;5084812;28;20027;-70
2024/01/03 06:31:29;;;;;;;9.03;1.40;;;;;;;-145.18;100.00;46922.16;5075096;28;20029;-70
2024/01/03 06:33:54;;;;;;;2.80;0.73;;;;;;;-145.18;100.00;46922.16;5072711;28;20062;-70
2024/01/03 06:36:20;;;;;;;8.13;0.80;;;;;;;-145.18;100.00;46920.19;5083110;28;20481;-70
2024/01/03 06:38:46;;;;;;;2.83;1.00;;;;;;;-145.18;100.00;46918.25;5091672;28;20043;-70
2024/01/03 06:41:11;;;;;;;3.63;0.90;;;;;;;-145.18;100.00;46918.25;5084222;28;20028;-70
2024/01/03 06:43:37;;;;;;;7.43;1.07;;;;;;;-145.18;100.00;46916.28;5093658;28;20035;-70
2024/01/03 06:46:02;;;;;;;6.50;1.00;;;;;;;-145.18;100.00;46914.34;5089306;28;20119;-70
2024/01/03 06:48:28;;;;;;;7.83;0.80;;;;;;;-145.18;100.00;46910.44;5093943;28;20115;-70
2024/01/03 06:50:53;;;;;;;1.70;0.47;;;;;;;-145.18;100.00;46912.38;5076796;28;20039;-70
2024/01/03 06:53:19;;;;;;;8.13;0.67;;;;;;;-145.18;100.00;46910.44;5095847;28;20028;-70
2024/01/03 06:55:44;;;;;;;4.07;0.60;;;;;;;-145.18;100.00;46912.38;5089902;28;20033;-70
2024/01/03 06:58:09;;;;;;;4.37;1.00;;;;;;;-145.18;100.00;46902.63;5083833;28;20043;-70
2024/01/03 07:00:35;;;;;;;3.73;0.93;;;;;;;-145.18;100.00;46898.72;5079517;28;20029;-70
2024/01/03 07:03:00;;;;;;;2.20;0.40;;;;;;;-145.18;100.00;46896.75;5076560;28;20031;-70
2024/01/03 07:05:26;;;;;;;3.33;0.37;;;;;;;-145.18;100.00;46898.72;5073037;28;20421;-70
2024/01/03 07:07:51;;;;;;;4.63;0.53;;;;;;;-145.18;100.00;46894.81;5084994;28;20032;-69
2024/01/03 07:10:17;;;;;;;3.17;1.13;;;;;;;-145.18;100.00;46896.75;5095029;28;20125;-70
2024/01/03 07:12:42;;;;;;;2.97;0.40;;;;;;;-145.18;100.00;46896.75;5093153;28;20058;-70
2024/01/03 07:15:09;;;;;;;4.93;0.50;;;;;;;-145.18;100.00;46896.75;5093557;28;20086;-70
2024/01/03 07:17:34;;;;;;;2.37;0.50;;;;;;;-145.18;100.00;46900.66;5093018;28;20048;-71
2024/01/03 07:20:00;;;;;;;7.60;1.57;;;;;;;-145.18;100.00;46904.56;5092965;28;20366;-70
2024/01/03 07:22:25;;;;;;;5.60;0.77;;;;;;;-145.18;100.00;46910.44;5093880;28;20452;-70
2024/01/03 07:24:50;;;;;;;7.47;0.90;;;;;;;-145.18;100.00;46914.34;5088628;28;20052;-70
2024/01/03 07:27:16;;;;;;;5.37;1.00;;;;;;;-145.18;100.00;46922.16;5085068;28;20042;-70
2024/01/03 07:29:41;;;;;;;6.53;0.93;;;;;;;-145.18;100.00;46924.09;5077695;28;20037;-70
2024/01/03 07:32:07;;;;;;;9.37;0.73;;;;;;;-145.18;100.00;46933.88;5078773;28;20089;-70
2024/01/03 07:34:33;;;;;;;6.10;0.70;;;;;;;-145.18;100.00;46937.78;5081880;28;20081;-70
2024/01/03 07:36:58;;;;;;;14.47;1.90;;;;;;;-145.18;100.00;46945.59;5091656;28;20395;-71
2024/01/03 07:39:24;;;;;;;12.43;1.73;;;;;;;-145.18;100.00;46953.41;5090503;28;20033;-70
2024/01/03 07:41:50;;;;;;;8.63;1.93;;;;;;;-145.18;100.00;46959.25;5089825;28;20044;-70
2024/01/03 07:44:15;;;;;;;7.97;1.40;;;;;;;-145.18;100.00;46961.22;5089934;28;20962;-70
2024/01/03 07:46:41;;;;;;;13.73;1.80;;;;;;;-145.18;100.00;46963.19;5087563;28;20284;-71
2024/01/03 07:49:06;;;;;;;11.10;1.70;;;;;;;-145.18;100.00;46969.03;5085070;28;20036;-70
2024/01/03 07:51:37;;;;;;;10.13;1.87;;;;;;;-145.18;100.00;46980.75;5086677;28;20032;-70
2024/01/03 07:54:03;;;;;;;19.43;3.03;;;;;;;-145.18;100.00;46982.72;5090350;28;20031;-70
2024/01/03 07:56:28;;;;;;;9.27;1.63;;;;;;;-145.18;100.00;46984.66;5083620;28;20268;-70
2024/01/03 07:58:54;;;;;;;6.30;2.57;;;;;;;-145.18;100.00;46990.53;5076221;28;20476;-70
2024/01/03 08:01:21;;;;;;;13.73;2.50;;;;;;;-145.18;100.00;46994.44;5081959;28;20024;-70
2024/01/03 08:03:46;;;;;;;10.07;2.53;;;;;;;-145.18;100.00;46996.38;5074589;28;20443;-70
2024/01/03 08:06:19;;;;;;;9.57;2.30;;;;;;;-145.18;100.00;46996.38;5087762;28;20304;-70
2024/01/03 08:08:44;;;;;;;9.93;2.03;;;;;;;-145.18;100.00;46998.34;5090311;28;20671;-70
2024/01/03 08:11:11;;;;;;;6.43;1.30;;;;;;;-145.18;100.00;47002.25;5090275;28;20299;-70
2024/01/03 08:13:37;;;;;;;7.10;1.60;;;;;;;-145.18;100.00;47008.09;5058307;28;20028;-71
2024/01/03 08:16:03;;;;;;;8.80;1.80;;;;;;;-145.18;100.00;47012.00;5091838;28;20815;-71
2024/01/03 08:18:28;;;;;;;8.87;2.40;;;;;;;-145.18;100.00;47010.06;5090265;28;20115;-71
2024/01/03 08:20:53;;;;;;;11.40;2.17;;;;;;;-145.18;100.00;47017.88;5098254;28;20757;-70
2024/01/03 08:23:19;;;;;;;13.83;2.67;;;;;;;-145.18;100.00;47015.91;5089760;28;20040;-71
2024/01/03 08:25:44;;;;;;;11.30;2.00;;;;;;;-145.18;100.00;47025.69;5069603;28;20026;-71
2024/01/03 08:28:09;;;;;;;10.63;2.03;;;;;;;-145.18;100.00;47025.69;5070179;28;20036;-70
2024/01/03 08:30:35;;;;;;;10.97;1.90;;;;;;;-145.18;100.00;47023.72;5085414;28;20120;-71
2024/01/03 08:33:00;;;;;;;11.37;2.27;;;;;;;-145.18;100.00;47027.63;5070377;28;20032;-70
2024/01/03 08:35:26;;;;;;;15.23;1.90;;;;;;;-145.18;100.00;47027.63;5084877;28;20036;-71
2024/01/03 08:37:51;;;;;;;11.67;2.13;;;;;;;-145.18;100.00;47031.53;5093101;28;20059;-71
2024/01/03 08:40:17;;;;;;;13.57;2.27;;;;;;;-145.18;100.00;47035.44;5060635;28;20068;-70
2024/01/03 08:42:42;;;;;;;14.13;3.20;;;;;;;-145.18;100.00;47039.34;5077715;28;20032;-71
2024/01/03 08:45:09;;;;;;;18.83;3.17;;;;;;;-145.18;100.00;47039.34;5090706;28;20506;-71
2024/01/03 08:47:34;;;;;;;14.80;3.07;;;;;;;-145.18;100.00;47043.28;5089675;28;20080;-71
2024/01/03 08:50:00;;;;;;;13.53;2.93;;;;;;;-145.18;100.00;47043.28;5073546;28;20269;-71
2024/01/03 08:52:25;;;;;;;20.10;3.57;;;;;;;-145.18;100.00;47045.22;5073726;28;20044;-71
2024/01/03 08:54:50;;;;;;;21.30;3.33;;;;;;;-145.18;100.00;47043.28;5091462;28;20036;-71
2024/01/03 08:57:16;;;;;;;19.97;3.57;;;;;;;-145.18;100.00;47051.09;5058696;28;20028;-71
2024/01/03 08:59:41;;;;;;;19.57;3.67;;;;;;;-145.18;100.00;47047.19;5072569;28;20120;-72
2024/01/03 09:02:07;;;;;;;20.30;2.40;;;;;;;-145.18;100.00;47047.19;5092403;28;20118;-71
2024/01/03 09:04:32;;;;;;;22.03;3.23;;;;;;;-145.18;100.00;47047.19;5092463;28;20039;-72
2024/01/03 09:06:57;;;;;;;25.77;2.87;;;;;;;-145.18;100.00;47047.19;5092822;28;20024;-71
2024/01/03 09:09:23;;;;;;;26.83;4.20;;;;;;;-145.18;100.00;47039.34;5089737;28;20062;-71
2024/01/03 09:11:49;;;;;;;25.97;3.17;;;;;;;-145.18;100.00;47043.28;5091172;28;20091;-71
2024/01/03 09:14:16;;;;;;;24.53;3.47;;;;;;;-145.18;100.00;47039.34;5071983;28;20032;-71
2024/01/03 09:16:41;;;;;;;26.63;2.63;;;;;;;-145.18;100.00;47035.44;5087085;28;20272;-71
2024/01/03 09:19:06;;;;;;;24.67;3.57;;;;;;;-145.18;100.00;47043.28;5092634;28;20330;-71
2024/01/03 09:21:32;;;;;;;20.67;2.50;;;;;;;-145.18;100.00;47039.34;5091988;28;20024;-71
2024/01/03 09:23:57;;;;;;;20.93;2.77;;;;;;;-145.18;100.00;47035.44;5074661;28;20442;-71
2024/01/03 09:26:23;;;;;;;28.93;2.47;;;;;;;-145.18;100.00;47031.53;5092034;28;20100;-73
2024/01/03 09:28:49;;;;;;;27.90;3.40;;;;;;;-145.18;100.00;47031.53;5079934;28;20035;-74
2024/01/03 09:31:15;;;;;;;29.67;3.47;;;;;;;-145.18;100.00;47029.59;5086670;28;20436;-74
2024/01/03 09:33:41;;;;;;;23.97;3.10;;;;;;;-145.18;100.00;47025.69;5087318;28;20024;-74
2024/01/03 09:36:15;;;;;;;22.20;3.47;;;;;;;-145.18;100.00;47023.72;5078047;28;20023;-74
2024/01/03 09:38:40;;;;;;;24.00;3.07;;;;;;;-145.18;100.00;47013.97;5088153;28;20115;-74
2024/01/03 09:41:12;;;;;;;25.57;3.37;;;;;;;-145.18;100.00;47012.00;5073869;28;20355;-74
2024/01/03 09:43:39;;;;;;;23.70;3.03;;;;;;;-145.18;100.00;47012.00;5075892;28;20735;-74
2024/01/03 09:46:05;;;;;;;28.80;2.80;;;;;;;-145.18;100.00;47000.28;5076088;28;20032;-74
2024/01/03 09:48:30;;;;;;;33.80;5.10;;;;;;;-145.18;100.00;47004.19;5083445;28;20533;-74
2024/01/03 09:50:56;;;;;;;20.87;3.33;;;;;;;-145.18;100.00;47004.19;5091773;28;20494;-74
2024/01/03 09:53:22;;;;;;;19.37;2.83;;;;;;;-145.18;100.00;47010.06;5088710;28;20480;-74
2024/01/03 09:55:49;;;;;;;19.73;2.60;;;;;;;-145.18;100.00;47008.09;5070363;28;20276;-74
2024/01/03 09:58:15;;;;;;;23.30;2.87;;;;;;;-145.18;100.00;47002.25;5067436;28;20257;-74
2024/01/03 10:00:41;;;;;;;22.93;3.60;;;;;;;-145.18;100.00;46998.34;5073075;28;20271;-73
2024/01/03 10:03:07;;;;;;;32.50;3.70;;;;;;;-145.18;100.00;46996.38;5090293;28;20032;-73
2024/01/03 10:05:33;;;;;;;32.27;4.03;;;;;;;-145.18;100.00;46988.56;5091475;28;20035;-73
2024/01/03 10:07:58;;;;;;;23.03;3.83;;;;;;;-145.18;100.00;46988.56;5085742;28;20389;-74
2024/01/03 10:10:36;;;;;;;37.63;3.30;;;;;;;-145.18;100.00;46990.53;5066777;28;20071;-74
2024/01/03 10:13:20;;;;;;;31.67;4.60;;;;;;;-145.18;100.00;46984.66;5088304;28;20036;-73
2024/01/03 10:15:47;;;;;;;22.10;3.73;;;;;;;-145.18;100.00;46978.81;5079782;28;20801;-73
2024/01/03 10:18:18;;;;;;;34.70;3.60;;;;;;;-145.18;100.00;46969.03;5056371;28;20112;-73
2024/01/03 10:20:44;;;;;;;22.37;3.27;;;;;;;-145.18;100.00;46969.03;5076065;28;20111;-73
2024/01/03 10:23:18;;;;;;;24.97;3.57;;;;;;;-145.18;100.00;46963.19;5073921;28;20116;-73
2024/01/03 10:25:44;;;;;;;30.63;4.17;;;;;;;-145.18;100.00;46961.22;5075914;28;20016;-73
2024/01/03 10:28:16;;;;;;;37.03;4.77;;;;;;;-145.18;100.00;46959.25;5083962;28;20031;-73
2024/01/03 10:30:42;;;;;;;35.37;5.03;;;;;;;-145.18;100.00;46957.31;5080048;28;20030;-73
2024/01/03 10:33:09;;;;;;;23.43;3.27;;;;;;;-145.18;100.00;46953.41;5091985;28;20111;-73
2024/01/03 10:35:39;;;;;;;26.33;3.77;;;;;;;-145.18;100.00;46947.53;5078596;28;20019;-70
2024/01/03 10:38:05;;;;;;;29.33;4.77;;;;;;;-145.18;100.00;46935.81;5073088;28;20119;-70
2024/01/03 10:40:32;;;;;;;29.30;3.93;;;;;;;-145.18;100.00;46933.88;5087498;28;20520;-71
2024/01/03 10:42:58;;;;;;;31.80;5.03;;;;;;;-145.18;100.00;46920.19;5068916;28;20020;-71
2024/01/03 10:45:24;;;;;;;27.53;5.47;;;;;;;-145.18;100.00;46916.28;5087991;28;20028;-71
2024/01/03 10:47:51;;;;;;;33.77;4.17;;;;;;;-145.18;100.00;46904.56;5086565;28;20536;-70
2024/01/03 10:50:17;;;;;;;28.70;4.40;;;;;;;-145.18;100.00;46900.66;5086582;28;20088;-70
2024/01/03 10:52:43;;;;;;;37.30;4.70;;;;;;;-145.18;100.00;46902.63;5085511;28;20126;-70
2024/01/03 10:55:12;;;;;;;35.20;3.93;;;;;;;-145.18;100.00;46898.72;5083128;28;20028;-71
2024/01/03 10:57:43;;;;;;;39.20;4.10;;;;;;;-145.18;100.00;46908.47;5082165;28;20116;-70